Time;durP1;ratioP1;P1;durP2;ratioP2;P2;SDS_P1;SDS_P2;PMS_P1;PMS_P2;Temp;Humidity;BMP_temperature;BMP_pressure;BME280_temperature;BME280_humidity;BME280_pressure;Samples;Min_cycle;Max_cycle;Signal;HPM_P1;HPM_P2
2022/08/19 00:01:24;;;;;;;13.55;10.55;;;;;;;19.80;100.00;98542.47;5062963;28;20466;-87
2022/08/19 00:03:50;;;;;;;13.68;10.75;;;;;;;19.70;100.00;98543.28;5044714;28;20044;-87
2022/08/19 00:06:16;;;;;;;12.55;9.88;;;;;;;19.68;100.00;98545.41;5041168;28;20017;-86
2022/08/19 00:08:42;;;;;;;12.82;9.15;;;;;;;19.74;100.00;98532.84;5061005;28;20020;-87
2022/08/19 00:11:09;;;;;;;10.82;9.40;;;;;;;19.56;100.00;98535.03;5044860;28;20048;-87
2022/08/19 00:13:35;;;;;;;9.90;8.10;;;;;;;19.63;100.00;98527.56;5046222;28;20024;-88
2022/08/19 00:16:01;;;;;;;10.25;8.23;;;;;;;19.60;100.00;98535.28;5060263;28;20028;-89
2022/08/19 00:18:27;;;;;;;9.30;7.30;;;;;;;19.36;100.00;98530.47;5062123;28;20107;-86
2022/08/19 00:20:53;;;;;;;10.38;7.35;;;;;;;19.41;100.00;98536.59;5042134;28;20167;-86
2022/08/19 00:23:19;;;;;;;9.15;6.78;;;;;;;19.50;100.00;98547.53;5061465;28;20025;-87
2022/08/19 00:25:46;;;;;;;7.97;6.55;;;;;;;19.52;100.00;98545.41;5062474;28;20079;-85
2022/08/19 00:28:12;;;;;;;11.18;5.80;;;;;;;19.55;100.00;98558.16;5054121;28;20179;-86
2022/08/19 00:30:38;;;;;;;13.63;4.35;;;;;;;18.98;100.00;98576.69;5063793;28;20025;-85
2022/08/19 00:33:03;;;;;;;12.57;4.25;;;;;;;18.90;100.00;98579.84;5047091;28;20047;-85
2022/08/19 00:35:29;;;;;;;12.55;4.90;;;;;;;19.00;100.00;98567.66;5045135;28;20045;-87
2022/08/19 00:37:55;;;;;;;11.25;4.60;;;;;;;18.74;100.00;98567.53;5044401;28;20028;-87
2022/08/19 00:40:21;;;;;;;10.18;3.85;;;;;;;18.63;100.00;98580.78;5041348;28;20098;-87
2022/08/19 00:42:47;;;;;;;13.98;3.90;;;;;;;18.53;100.00;98589.50;5059555;28;20035;-85
2022/08/19 00:45:22;;;;;;;15.60;4.07;;;;;;;18.61;100.00;98580.22;5057705;28;20021;-88
2022/08/19 00:47:48;;;;;;;14.85;4.18;;;;;;;18.38;100.00;98582.25;5044271;28;20373;-86
2022/08/19 00:50:17;;;;;;;13.23;4.63;;;;;;;18.17;100.00;98562.72;5044669;28;20033;-87
2022/08/19 00:52:48;;;;;;;10.65;3.45;;;;;;;18.32;100.00;98579.81;5048654;28;20373;-86
2022/08/19 00:55:19;;;;;;;14.80;4.38;;;;;;;18.23;100.00;98577.66;5060811;28;20501;-88
2022/08/19 00:57:51;;;;;;;10.35;4.38;;;;;;;17.98;100.00;98572.94;5044692;28;20034;-85
2022/08/19 01:00:19;;;;;;;12.45;4.82;;;;;;;18.01;100.00;98577.72;5044529;28;20365;-85
2022/08/19 01:03:05;;;;;;;16.13;4.50;;;;;;;17.80;100.00;98574.91;5058181;28;20097;-85
2022/08/19 01:05:31;;;;;;;13.90;4.30;;;;;;;17.89;100.00;98579.78;5061861;28;20052;-85
2022/08/19 01:08:00;;;;;;;12.90;4.35;;;;;;;17.83;100.00;98584.25;5046693;28;20052;-87
2022/08/19 01:10:30;;;;;;;15.32;4.57;;;;;;;18.03;100.00;98573.00;5045687;28;20068;-85
2022/08/19 01:12:58;;;;;;;20.25;4.57;;;;;;;18.11;100.00;98579.69;5056565;28;20083;-86
2022/08/19 01:15:29;;;;;;;17.65;4.85;;;;;;;18.12;100.00;98589.25;5062308;28;20654;-86
2022/08/19 01:18:00;;;;;;;7.25;3.83;;;;;;;17.99;100.00;98590.47;5056500;28;20051;-87
2022/08/19 01:20:25;;;;;;;20.77;4.07;;;;;;;17.92;100.00;98581.94;5065710;28;20128;-86
2022/08/19 01:22:54;;;;;;;12.38;4.03;;;;;;;18.11;100.00;98583.16;5061646;28;20535;-86
2022/08/19 01:25:26;;;;;;;9.95;4.18;;;;;;;18.03;100.00;98588.13;5056008;28;20086;-86
2022/08/19 01:27:52;;;;;;;19.20;4.45;;;;;;;17.77;100.00;98586.06;5043364;28;20059;-86
2022/08/19 01:30:29;;;;;;;11.60;4.20;;;;;;;17.71;100.00;98587.06;5047060;28;20029;-86
2022/08/19 01:32:55;;;;;;;12.27;4.13;;;;;;;17.82;100.00;98588.75;5058589;28;20544;-85
2022/08/19 01:35:25;;;;;;;15.02;4.32;;;;;;;17.70;100.00;98601.41;5047465;28;20379;-87
2022/08/19 01:37:55;;;;;;;14.52;4.50;;;;;;;17.60;100.00;98595.97;5060430;28;20078;-86
2022/08/19 01:40:24;;;;;;;12.32;4.18;;;;;;;17.61;100.00;98600.25;5043464;28;20102;-86
2022/08/19 01:42:52;;;;;;;16.80;4.57;;;;;;;17.37;100.00;98598.69;5044379;28;20560;-86
2022/08/19 01:45:20;;;;;;;14.00;4.65;;;;;;;17.46;100.00;98609.66;5046521;28;20379;-86
2022/08/19 01:47:46;;;;;;;18.83;5.03;;;;;;;17.18;100.00;98606.19;5043444;28;20025;-85
2022/08/19 01:50:13;;;;;;;10.45;4.15;;;;;;;17.11;100.00;98603.72;5064777;28;20027;-87
2022/08/19 01:52:41;;;;;;;13.40;4.50;;;;;;;16.95;100.00;98602.72;5041773;28;20032;-86
2022/08/19 01:55:10;;;;;;;17.02;4.88;;;;;;;17.13;100.00;98592.88;5042867;28;20032;-87
2022/08/19 01:57:38;;;;;;;21.23;4.15;;;;;;;17.01;100.00;98602.81;5058943;28;20033;-86
2022/08/19 02:00:08;;;;;;;15.38;4.18;;;;;;;16.92;100.00;98611.19;5051019;28;20504;-85
2022/08/19 02:02:33;;;;;;;17.40;4.53;;;;;;;16.77;100.00;98605.69;5042151;28;20037;-85
2022/08/19 02:04:59;;;;;;;16.83;4.93;;;;;;;16.53;100.00;98603.25;5068574;28;20039;-86
2022/08/19 02:07:24;;;;;;;16.98;4.72;;;;;;;16.65;100.00;98613.75;5044370;28;20502;-85
2022/08/19 02:09:50;;;;;;;16.17;4.32;;;;;;;16.73;100.00;98615.19;5060808;28;20032;-85
2022/08/19 02:12:16;;;;;;;14.80;4.40;;;;;;;16.72;100.00;98624.97;5042587;28;20033;-87
2022/08/19 02:14:42;;;;;;;15.52;4.88;;;;;;;16.69;100.00;98620.94;5040008;28;20057;-87
2022/08/19 02:17:08;;;;;;;14.35;4.80;;;;;;;16.81;100.00;98622.69;5062978;28;20074;-86
2022/08/19 02:19:34;;;;;;;17.83;5.45;;;;;;;16.72;100.00;98626.81;5044759;28;20029;-86
2022/08/19 02:22:00;;;;;;;11.10;4.60;;;;;;;16.63;100.00;98635.19;5059422;28;20536;-85
2022/08/19 02:24:26;;;;;;;15.82;4.30;;;;;;;16.60;100.00;98637.50;5047034;28;20033;-86
2022/08/19 02:26:52;;;;;;;19.45;4.80;;;;;;;16.40;100.00;98636.97;5061192;28;20025;-87
2022/08/19 02:29:18;;;;;;;16.73;4.68;;;;;;;16.39;100.00;98631.91;5039990;28;20047;-86
2022/08/19 02:31:43;;;;;;;17.50;4.55;;;;;;;16.45;100.00;98652.16;5061582;28;20032;-86
2022/08/19 02:34:10;;;;;;;14.10;5.35;;;;;;;16.35;100.00;98636.91;5060443;28;20390;-85
2022/08/19 02:36:36;;;;;;;12.10;3.90;;;;;;;16.24;100.00;98637.78;5062337;28;20055;-86
2022/08/19 02:39:02;;;;;;;16.38;4.07;;;;;;;16.11;100.00;98631.81;5067271;28;20032;-86
2022/08/19 02:41:30;;;;;;;19.88;4.50;;;;;;;16.11;100.00;98626.50;5073282;28;20474;-85
2022/08/19 02:44:00;;;;;;;22.13;4.53;;;;;;;16.18;100.00;98622.88;5052073;28;20084;-87
2022/08/19 02:46:29;;;;;;;15.50;4.00;;;;;;;16.10;100.00;98640.75;5068527;28;20028;-87
2022/08/19 02:48:59;;;;;;;20.33;4.88;;;;;;;16.01;100.00;98638.75;5074860;28;20086;-85
2022/08/19 02:51:28;;;;;;;21.58;5.20;;;;;;;15.82;100.00;98644.22;5068927;28;20043;-86
2022/08/19 02:53:54;;;;;;;16.42;4.25;;;;;;;15.80;100.00;98636.56;5083690;28;20047;-86
2022/08/19 02:56:21;;;;;;;21.77;4.88;;;;;;;15.75;100.00;98643.59;5060827;28;20025;-86
2022/08/19 02:58:48;;;;;;;15.65;4.28;;;;;;;15.78;100.00;98630.69;5049532;28;20518;-86
2022/08/19 03:01:29;;;;;;;18.85;4.35;;;;;;;15.74;100.00;98650.75;5051748;28;20086;-86
2022/08/19 03:03:56;;;;;;;21.77;4.05;;;;;;;15.96;100.00;98655.38;5047995;28;20505;-87
2022/08/19 03:06:23;;;;;;;19.92;4.70;;;;;;;16.02;100.00;98637.72;5061630;28;20025;-85
2022/08/19 03:08:49;;;;;;;21.63;4.05;;;;;;;16.11;100.00;98657.47;5051865;28;20521;-86
2022/08/19 03:11:19;;;;;;;20.15;5.03;;;;;;;16.17;100.00;98661.00;5066589;28;20383;-86
2022/08/19 03:13:44;;;;;;;14.55;4.13;;;;;;;16.24;100.00;98661.63;5055648;28;20029;-84
2022/08/19 03:16:12;;;;;;;24.77;5.35;;;;;;;16.29;100.00;98653.75;5066047;28;20150;-84
2022/08/19 03:18:38;;;;;;;19.45;4.47;;;;;;;16.40;100.00;98644.94;5058555;28;20471;-85
2022/08/19 03:21:04;;;;;;;21.30;4.13;;;;;;;16.37;100.00;98661.31;5044694;28;20039;-85
2022/08/19 03:23:29;;;;;;;12.23;4.32;;;;;;;16.37;100.00;98671.09;5042399;28;20041;-86
2022/08/19 03:25:58;;;;;;;18.05;5.15;;;;;;;16.35;100.00;98670.53;5060416;28;20398;-85
2022/08/19 03:28:24;;;;;;;25.27;5.18;;;;;;;16.23;100.00;98667.97;5044669;28;20059;-86
2022/08/19 03:31:09;;;;;;;22.02;5.32;;;;;;;16.28;100.00;98673.34;5044349;28;20082;-86
2022/08/19 03:33:36;;;;;;;19.40;4.20;;;;;;;16.02;100.00;98664.22;5069856;28;20036;-88
2022/08/19 03:36:05;;;;;;;14.75;4.03;;;;;;;15.97;100.00;98681.59;5063876;28;20041;-86
2022/08/19 03:38:32;;;;;;;21.45;4.63;;;;;;;16.09;100.00;98675.44;5063680;28;20113;-86
2022/08/19 03:41:01;;;;;;;18.73;4.40;;;;;;;16.00;100.00;98664.44;5059430;28;20025;-85
2022/08/19 03:43:28;;;;;;;18.20;4.43;;;;;;;15.85;100.00;98668.38;5047798;28;20039;-87
2022/08/19 03:46:24;;;;;;;18.45;4.32;;;;;;;15.77;100.00;98667.97;5060479;28;20033;-86
2022/08/19 03:48:54;;;;;;;18.45;4.38;;;;;;;15.72;100.00;98684.53;5064071;28;20041;-86
2022/08/19 03:51:24;;;;;;;16.33;4.13;;;;;;;15.83;100.00;98682.91;5046809;28;20028;-85
2022/08/19 03:53:51;;;;;;;18.30;4.85;;;;;;;15.74;100.00;98689.63;5060649;28;20067;-86
2022/08/19 03:56:17;;;;;;;14.15;4.25;;;;;;;15.68;100.00;98686.06;5045120;28;20409;-87
2022/08/19 03:58:44;;;;;;;20.13;4.90;;;;;;;15.46;100.00;98684.09;5060882;28;20035;-87
2022/08/19 04:01:13;;;;;;;18.10;3.92;;;;;;;15.24;100.00;98673.34;5049321;28;20044;-85
2022/08/19 04:03:40;;;;;;;27.60;5.75;;;;;;;15.37;100.00;98685.50;5043219;28;20035;-86
2022/08/19 04:06:12;;;;;;;18.52;4.18;;;;;;;15.35;100.00;98688.38;5047458;28;20060;-86
2022/08/19 04:08:40;;;;;;;26.88;5.50;;;;;;;15.23;100.00;98692.88;5047656;28;20029;-85
2022/08/19 04:11:08;;;;;;;27.35;5.90;;;;;;;15.09;100.00;98695.78;5048732;28;20041;-86
2022/08/19 04:13:34;;;;;;;18.77;4.50;;;;;;;15.08;100.00;98674.88;5060819;28;20124;-86
2022/08/19 04:16:00;;;;;;;22.83;5.18;;;;;;;15.29;100.00;98705.19;5039453;28;20033;-86
2022/08/19 04:18:29;;;;;;;24.13;4.63;;;;;;;15.31;100.00;98694.34;5042327;28;20115;-85
2022/08/19 04:20:55;;;;;;;26.52;4.95;;;;;;;15.02;100.00;98705.66;5056818;28;20063;-85
2022/08/19 04:23:20;;;;;;;27.05;4.50;;;;;;;15.02;100.00;98699.59;5063788;28;20036;-86
2022/08/19 04:25:46;;;;;;;30.42;5.57;;;;;;;14.79;100.00;98688.00;5062120;28;20032;-86
2022/08/19 04:28:13;;;;;;;21.35;5.88;;;;;;;14.99;100.00;98701.66;5044498;28;20074;-84
2022/08/19 04:30:48;;;;;;;22.40;5.53;;;;;;;14.91;100.00;98694.06;5045240;28;20024;-85
2022/08/19 04:33:16;;;;;;;24.77;4.88;;;;;;;14.78;100.00;98708.34;5060697;28;20047;-87
2022/08/19 04:35:45;;;;;;;23.38;4.88;;;;;;;14.68;100.00;98708.88;5046671;28;20578;-86
2022/08/19 04:38:11;;;;;;;27.42;5.45;;;;;;;14.63;100.00;98710.59;5043513;28;20025;-86
2022/08/19 04:43:26;;;;;;;24.77;5.03;;;;;;;14.42;100.00;98723.31;5059099;28;20505;-87
2022/08/19 04:45:53;;;;;;;25.35;5.28;;;;;;;14.33;100.00;98728.13;5057865;28;20025;-86
2022/08/19 04:48:25;;;;;;;19.17;5.10;;;;;;;14.42;100.00;98724.13;5046128;28;20546;-84
2022/08/19 04:50:58;;;;;;;27.10;5.20;;;;;;;14.47;100.00;98720.00;5065699;28;20032;-85
2022/08/19 04:53:29;;;;;;;27.77;5.90;;;;;;;14.50;100.00;98730.09;5060624;28;20039;-85
2022/08/19 04:55:57;;;;;;;25.65;5.18;;;;;;;14.59;100.00;98728.75;5044667;28;20054;-85
2022/08/19 04:58:25;;;;;;;19.67;5.05;;;;;;;14.60;100.00;98719.78;5036227;28;20043;-87
2022/08/19 05:00:51;;;;;;;22.10;5.15;;;;;;;14.25;100.00;98733.75;5040800;28;20033;-85
2022/08/19 05:03:19;;;;;;;29.88;6.00;;;;;;;14.23;100.00;98741.09;5039570;28;20421;-85
2022/08/19 05:05:48;;;;;;;23.52;5.53;;;;;;;14.27;100.00;98742.25;5039022;28;20032;-85
2022/08/19 05:08:19;;;;;;;20.70;5.13;;;;;;;14.18;100.00;98735.69;5060619;28;20107;-86
2022/08/19 05:10:49;;;;;;;19.08;4.25;;;;;;;14.08;100.00;98744.94;5058757;28;20036;-87
2022/08/19 05:13:17;;;;;;;24.90;4.35;;;;;;;14.24;100.00;98742.69;5056324;28;20021;-86
2022/08/19 05:15:43;;;;;;;23.23;5.55;;;;;;;14.23;100.00;98741.88;5056644;28;20025;-85
2022/08/19 05:23:38;;;;;;;27.23;5.18;;;;;;;14.30;100.00;98751.56;5063307;28;20106;-85
2022/08/19 05:26:05;;;;;;;16.13;4.80;;;;;;;14.30;100.00;98757.63;5040796;28;20025;-84
2022/08/19 05:28:30;;;;;;;30.13;5.07;;;;;;;14.46;100.00;98755.38;5045335;28;20060;-85
2022/08/19 05:30:56;;;;;;;24.65;5.00;;;;;;;14.39;100.00;98761.56;5057612;28;20028;-85
2022/08/19 05:33:24;;;;;;;20.67;4.63;;;;;;;14.59;100.00;98759.63;5060066;28;20083;-85
2022/08/19 05:35:50;;;;;;;22.75;5.28;;;;;;;14.68;100.00;98774.91;5064257;28;20707;-88
2022/08/19 05:38:17;;;;;;;23.65;5.07;;;;;;;14.59;100.00;98778.13;5039547;28;20055;-86
2022/08/19 05:40:46;;;;;;;22.65;5.25;;;;;;;14.39;100.00;98780.03;5043413;28;20375;-86
2022/08/19 05:43:15;;;;;;;22.80;4.90;;;;;;;14.21;100.00;98762.41;5043513;28;20036;-85
2022/08/19 05:45:42;;;;;;;22.23;4.43;;;;;;;14.49;100.00;98776.03;5060531;28;20039;-87
2022/08/19 05:48:11;;;;;;;31.02;5.72;;;;;;;14.45;100.00;98775.69;5061917;28;20506;-87
2022/08/19 05:50:39;;;;;;;20.75;5.05;;;;;;;14.70;100.00;98786.06;5056971;28;20463;-86
2022/08/19 05:53:05;;;;;;;24.73;6.03;;;;;;;14.83;100.00;98784.28;5059596;28;20032;-87
2022/08/19 05:55:31;;;;;;;21.92;4.90;;;;;;;14.88;100.00;98787.03;5063861;28;20360;-85
2022/08/19 05:57:57;;;;;;;19.15;4.85;;;;;;;14.85;100.00;98776.91;5059304;28;20032;-85
2022/08/19 06:00:23;;;;;;;22.13;4.97;;;;;;;14.91;100.00;98781.28;5041312;28;20040;-86
2022/08/19 06:02:50;;;;;;;24.00;5.43;;;;;;;14.94;100.00;98778.22;5059622;28;20048;-86
2022/08/19 06:05:16;;;;;;;24.00;5.72;;;;;;;15.20;100.00;98781.41;5044959;28;20431;-86
2022/08/19 06:07:42;;;;;;;24.35;5.20;;;;;;;14.86;100.00;98783.81;5064770;28;20177;-88
2022/08/19 06:10:09;;;;;;;32.47;5.55;;;;;;;14.90;100.00;98777.03;5063952;28;20082;-86
2022/08/19 06:12:36;;;;;;;15.13;4.13;;;;;;;14.92;100.00;98769.69;5063576;28;20110;-86
2022/08/19 06:15:08;;;;;;;17.20;4.70;;;;;;;15.01;100.00;98777.28;5043839;28;20028;-85
2022/08/19 06:17:34;;;;;;;24.27;4.80;;;;;;;15.06;100.00;98775.56;5065950;28;20028;-86
2022/08/19 06:20:03;;;;;;;23.83;5.13;;;;;;;15.16;100.00;98774.97;5045745;28;20040;-86
2022/08/19 06:22:29;;;;;;;15.40;4.75;;;;;;;15.10;100.00;98771.41;5058449;28;20047;-86
2022/08/19 06:24:56;;;;;;;16.02;4.30;;;;;;;15.45;100.00;98788.28;5070159;28;20028;-86
2022/08/19 06:27:22;;;;;;;21.38;5.05;;;;;;;15.39;100.00;98797.16;5070783;28;20048;-85
2022/08/19 06:29:48;;;;;;;25.52;4.95;;;;;;;15.14;100.00;98792.91;5042808;28;20411;-84
2022/08/19 06:32:16;;;;;;;22.77;4.82;;;;;;;15.57;100.00;98797.00;5047177;28;20544;-85
2022/08/19 06:34:42;;;;;;;25.30;4.93;;;;;;;15.35;100.00;98788.06;5057287;28;20033;-86
2022/08/19 06:37:08;;;;;;;19.63;5.95;;;;;;;15.54;100.00;98789.53;5059566;28;20021;-88
2022/08/19 06:39:38;;;;;;;17.48;4.18;;;;;;;15.61;100.00;98793.88;5050718;28;20064;-88
2022/08/19 06:42:08;;;;;;;20.90;5.03;;;;;;;15.60;100.00;98792.28;5057196;28;20024;-87
2022/08/19 06:44:36;;;;;;;21.52;4.90;;;;;;;15.61;100.00;98799.16;5063116;28;20043;-86
2022/08/19 06:47:04;;;;;;;29.73;5.20;;;;;;;15.59;100.00;98791.47;5062413;28;20115;-85
2022/08/19 06:49:33;;;;;;;20.63;5.18;;;;;;;15.64;100.00;98796.88;5047495;28;20036;-85
2022/08/19 06:51:59;;;;;;;17.88;4.60;;;;;;;15.43;100.00;98795.63;5065743;28;20372;-87
2022/08/19 06:54:28;;;;;;;21.08;4.68;;;;;;;15.39;100.00;98790.00;5066955;28;20044;-86
2022/08/19 06:56:53;;;;;;;19.48;4.80;;;;;;;15.78;100.00;98794.75;5048347;28;20453;-86
2022/08/19 06:59:22;;;;;;;20.23;4.82;;;;;;;15.74;100.00;98801.56;5057019;28;20047;-86
2022/08/19 07:01:51;;;;;;;17.85;4.05;;;;;;;15.82;100.00;98809.13;5060691;28;20032;-85
2022/08/19 07:04:20;;;;;;;18.55;4.25;;;;;;;15.95;100.00;98802.00;5042947;28;20028;-86
2022/08/19 07:06:46;;;;;;;16.30;4.50;;;;;;;16.02;100.00;98807.94;5040697;28;20025;-87
2022/08/19 07:09:15;;;;;;;18.17;5.13;;;;;;;16.15;100.00;98811.34;5061571;28;20056;-86
2022/08/19 07:11:46;;;;;;;20.95;5.30;;;;;;;15.95;100.00;98807.28;5039534;28;20382;-85
2022/08/19 07:14:13;;;;;;;22.48;4.35;;;;;;;16.18;100.00;98811.66;5046073;28;20033;-86
2022/08/19 07:16:39;;;;;;;27.70;5.07;;;;;;;15.83;100.00;98818.66;5056746;28;20025;-84
2022/08/19 07:19:06;;;;;;;27.00;4.40;;;;;;;15.95;100.00;98807.28;5044424;28;20029;-85
2022/08/19 07:21:32;;;;;;;27.30;4.68;;;;;;;15.68;100.00;98815.72;5044056;28;20040;-85
2022/08/19 07:24:00;;;;;;;24.75;4.15;;;;;;;16.12;100.00;98813.44;5045343;28;20048;-87
2022/08/19 07:26:28;;;;;;;25.70;5.35;;;;;;;16.17;100.00;98811.91;5067471;28;20033;-86
2022/08/19 07:28:57;;;;;;;18.92;4.68;;;;;;;16.41;100.00;98821.38;5062266;28;20086;-86
2022/08/19 07:31:25;;;;;;;28.55;5.30;;;;;;;15.99;100.00;98824.31;5061826;28;20028;-86
2022/08/19 07:33:55;;;;;;;21.95;4.47;;;;;;;15.94;100.00;98821.56;5068054;28;20028;-85
2022/08/19 07:36:24;;;;;;;23.60;5.38;;;;;;;16.02;100.00;98807.16;5068934;28;20040;-86
2022/08/19 07:38:51;;;;;;;24.17;5.30;;;;;;;16.38;100.00;98821.03;5060452;28;20033;-87
2022/08/19 07:41:24;;;;;;;22.75;4.90;;;;;;;16.10;100.00;98820.00;5044275;28;20029;-87
2022/08/19 07:43:51;;;;;;;21.30;5.72;;;;;;;16.21;100.00;98800.63;5055100;28;20033;-86
2022/08/19 07:46:20;;;;;;;25.02;5.20;;;;;;;16.20;100.00;98825.47;5042171;28;20025;-88
2022/08/19 07:48:47;;;;;;;33.80;6.10;;;;;;;16.27;100.00;98830.63;5042526;28;20461;-85
2022/08/19 07:51:15;;;;;;;27.55;6.57;;;;;;;16.26;100.00;98834.31;5045969;28;20075;-86
2022/08/19 07:53:43;;;;;;;19.77;5.13;;;;;;;16.58;100.00;98827.72;5064787;28;20079;-87
2022/08/19 07:56:08;;;;;;;22.98;5.45;;;;;;;16.46;100.00;98833.91;5036257;28;20052;-86
2022/08/19 07:58:38;;;;;;;22.75;4.47;;;;;;;16.21;100.00;98844.81;5047816;28;20067;-86
2022/08/19 08:01:04;;;;;;;14.38;4.13;;;;;;;16.22;100.00;98838.50;5058399;28;20040;-86
2022/08/19 08:09:15;;;;;;;18.38;4.50;;;;;;;16.59;100.00;98848.69;5061274;28;20032;-86
2022/08/19 08:11:48;;;;;;;14.98;3.92;;;;;;;16.41;100.00;98852.34;5062547;28;20530;-86
2022/08/19 08:14:22;;;;;;;19.37;4.50;;;;;;;16.38;100.00;98848.31;5040435;28;20025;-86
2022/08/19 08:16:52;;;;;;;21.88;4.55;;;;;;;16.45;100.00;98850.03;5063037;28;20092;-85
2022/08/19 08:19:20;;;;;;;16.30;3.95;;;;;;;17.01;100.00;98857.34;5058002;28;20032;-87
2022/08/19 08:21:46;;;;;;;16.98;4.18;;;;;;;17.24;100.00;98861.69;5055428;28;20489;-85
2022/08/19 08:24:12;;;;;;;18.67;4.07;;;;;;;16.76;100.00;98850.56;5061130;28;20029;-86
2022/08/19 08:26:39;;;;;;;22.25;4.20;;;;;;;17.07;100.00;98848.41;5060862;28;20025;-87
2022/08/19 08:29:05;;;;;;;22.75;4.60;;;;;;;17.07;100.00;98853.72;5044731;28;20371;-87
2022/08/19 08:31:30;;;;;;;18.40;4.70;;;;;;;16.79;100.00;98873.94;5066828;28;20024;-85
2022/08/19 08:33:56;;;;;;;17.80;4.15;;;;;;;16.96;100.00;98853.53;5059630;28;20032;-86
2022/08/19 08:36:21;;;;;;;16.60;4.32;;;;;;;17.65;100.00;98861.44;5046438;28;20379;-86
2022/08/19 08:38:47;;;;;;;16.77;5.13;;;;;;;17.21;100.00;98868.25;5036119;28;20060;-87
2022/08/19 08:41:27;;;;;;;15.75;4.03;;;;;;;17.56;100.00;98867.16;5042858;28;20048;-86
2022/08/19 08:43:55;;;;;;;16.20;3.92;;;;;;;17.00;100.00;98867.16;5055387;28;20039;-86
2022/08/19 08:46:37;;;;;;;14.85;4.22;;;;;;;17.62;100.00;98859.28;5061877;28;20509;-86
2022/08/19 08:49:31;;;;;;;17.00;4.28;;;;;;;17.60;100.00;98861.38;5058955;28;20127;-85
2022/08/19 08:52:03;;;;;;;21.67;4.78;;;;;;;17.64;100.00;98851.84;5045317;28;20448;-87
2022/08/19 08:54:38;;;;;;;16.38;4.25;;;;;;;18.01;100.00;98864.53;5045092;28;20033;-87
2022/08/19 08:57:10;;;;;;;19.98;3.92;;;;;;;17.50;100.00;98844.28;5044222;28;20040;-87
2022/08/19 08:59:40;;;;;;;17.10;3.55;;;;;;;18.04;100.00;98860.63;5068372;28;20028;-86
2022/08/19 09:02:06;;;;;;;20.15;4.15;;;;;;;18.47;100.00;98869.56;5066077;28;20504;-86
2022/08/19 09:04:31;;;;;;;16.52;3.55;;;;;;;18.31;100.00;98859.84;5047865;28;20059;-86
2022/08/19 09:07:12;;;;;;;14.25;3.63;;;;;;;18.37;100.00;98864.97;5064003;28;20113;-86
2022/08/19 09:09:44;;;;;;;22.23;4.45;;;;;;;18.80;100.00;98859.78;5042403;28;20052;-85
2022/08/19 09:12:17;;;;;;;14.38;3.35;;;;;;;19.47;100.00;98870.13;5060856;28;20036;-86
2022/08/19 09:15:01;;;;;;;16.70;3.87;;;;;;;18.84;100.00;98866.19;5064810;28;20387;-85
2022/08/19 09:17:30;;;;;;;15.05;4.22;;;;;;;18.75;100.00;98872.22;5050001;28;20281;-86
2022/08/19 09:19:58;;;;;;;17.75;4.57;;;;;;;18.67;100.00;98873.47;5065262;28;20548;-86
2022/08/19 09:22:26;;;;;;;14.95;3.53;;;;;;;19.22;100.00;98874.19;5058394;28;20024;-87
2022/08/19 09:24:52;;;;;;;17.83;3.53;;;;;;;19.24;100.00;98869.44;5041067;28;20088;-85
2022/08/19 09:27:20;;;;;;;13.10;3.80;;;;;;;19.48;100.00;98871.72;5063909;28;20037;-86
2022/08/19 09:29:50;;;;;;;23.30;4.60;;;;;;;19.70;100.00;98873.44;5064414;28;20119;-85
2022/08/19 09:32:17;;;;;;;19.83;4.30;;;;;;;20.09;98.09;98869.63;5059577;28;20040;-87
2022/08/19 09:34:43;;;;;;;13.43;4.07;;;;;;;20.06;97.99;98870.94;5048950;28;20035;-86
2022/08/19 09:37:10;;;;;;;11.43;3.85;;;;;;;19.96;95.86;98865.56;5061177;28;20036;-86
2022/08/19 09:39:35;;;;;;;19.23;4.53;;;;;;;19.44;94.90;98875.94;5040779;28;20036;-87
2022/08/19 09:42:03;;;;;;;15.00;3.75;;;;;;;19.18;96.40;98854.50;5048424;28;20024;-85
2022/08/19 09:44:40;;;;;;;16.95;4.80;;;;;;;19.87;97.25;98859.13;5058498;28;20025;-86
2022/08/19 09:47:07;;;;;;;10.48;3.92;;;;;;;20.39;93.87;98862.78;5046865;28;20085;-87
2022/08/19 09:49:33;;;;;;;13.32;4.32;;;;;;;20.61;95.40;98857.19;5058861;28;20112;-86
2022/08/19 09:51:59;;;;;;;11.77;4.05;;;;;;;19.94;93.91;98860.50;5038956;28;20486;-86
2022/08/19 09:54:26;;;;;;;13.00;3.65;;;;;;;19.65;95.69;98865.41;5041046;28;20028;-87
2022/08/19 09:56:53;;;;;;;9.93;3.92;;;;;;;19.87;93.29;98851.94;5059804;28;20037;-85
2022/08/19 09:59:19;;;;;;;15.23;4.60;;;;;;;19.55;94.43;98861.63;5054026;28;20082;-85
2022/08/19 10:01:44;;;;;;;16.60;4.90;;;;;;;19.54;95.38;98873.34;5038996;28;20107;-85
2022/08/19 10:04:10;;;;;;;18.38;4.93;;;;;;;19.65;97.08;98882.19;5062648;28;20029;-85
2022/08/19 10:06:38;;;;;;;15.70;4.28;;;;;;;19.97;95.73;98875.16;5056610;28;20024;-86
2022/08/19 10:09:56;;;;;;;14.88;4.22;;;;;;;20.46;95.76;98867.84;5047336;28;20031;-85
2022/08/19 10:12:23;;;;;;;13.52;4.40;;;;;;;19.63;91.44;98876.31;5066813;28;20041;-87
2022/08/19 10:14:53;;;;;;;18.63;4.72;;;;;;;19.98;91.70;98861.59;5057589;28;20151;-85
2022/08/19 10:17:21;;;;;;;14.90;4.88;;;;;;;20.01;91.11;98873.56;5043168;28;20036;-85
2022/08/19 10:19:47;;;;;;;21.60;5.38;;;;;;;20.62;90.63;98871.34;5055363;28;20029;-86
2022/08/19 10:22:20;;;;;;;9.82;3.78;;;;;;;20.53;87.66;98863.06;5062945;28;20036;-85
2022/08/19 10:24:46;;;;;;;17.60;4.80;;;;;;;20.35;86.28;98867.81;5042877;28;20041;-86
2022/08/19 10:27:14;;;;;;;14.02;5.13;;;;;;;20.50;85.40;98866.25;5062603;28;20111;-86
2022/08/19 10:29:40;;;;;;;13.57;4.72;;;;;;;21.39;85.95;98873.19;5059493;28;20475;-87
2022/08/19 10:32:08;;;;;;;12.93;5.25;;;;;;;21.35;84.75;98856.94;5053144;28;20029;-87
2022/08/19 10:34:38;;;;;;;20.35;5.05;;;;;;;21.18;82.79;98872.44;5062703;28;20487;-85
2022/08/19 10:37:05;;;;;;;10.18;4.15;;;;;;;21.28;83.13;98877.75;5042736;28;20116;-86
2022/08/19 10:39:36;;;;;;;11.85;4.63;;;;;;;20.87;84.73;98867.91;5060704;28;20122;-85
2022/08/19 10:42:06;;;;;;;12.85;4.78;;;;;;;21.52;84.98;98875.31;5059444;28;20031;-85
2022/08/19 10:44:35;;;;;;;17.02;5.32;;;;;;;21.43;82.81;98868.94;5058546;28;20040;-86
2022/08/19 10:47:01;;;;;;;12.45;4.85;;;;;;;21.30;84.10;98880.16;5046385;28;20510;-87
2022/08/19 10:49:27;;;;;;;15.60;5.22;;;;;;;21.57;83.41;98868.34;5043177;28;20036;-86
2022/08/19 10:57:24;;;;;;;10.45;4.75;;;;;;;21.58;82.38;98861.94;5062906;28;20025;-85
2022/08/19 10:59:49;;;;;;;9.98;4.15;;;;;;;21.44;83.28;98864.38;5043701;28;20434;-87
2022/08/19 11:02:15;;;;;;;13.88;4.60;;;;;;;20.89;84.28;98860.44;5039833;28;20036;-86
2022/08/19 11:04:41;;;;;;;13.10;4.05;;;;;;;21.22;83.41;98874.31;5047489;28;20033;-85
2022/08/19 11:07:07;;;;;;;18.38;4.95;;;;;;;21.12;84.63;98871.63;5044208;28;20055;-87
2022/08/19 11:09:39;;;;;;;19.67;5.15;;;;;;;21.31;84.59;98881.75;5045795;28;20037;-86
2022/08/19 11:12:05;;;;;;;12.20;4.53;;;;;;;20.77;84.70;98871.34;5045524;28;20106;-86
2022/08/19 11:14:33;;;;;;;15.05;5.18;;;;;;;20.95;84.09;98864.69;5061308;28;20036;-86
2022/08/19 11:17:04;;;;;;;11.82;4.70;;;;;;;20.93;83.22;98882.03;5043539;28;20528;-87
2022/08/19 11:19:30;;;;;;;16.73;4.88;;;;;;;20.82;83.28;98851.88;5045042;28;20037;-84
2022/08/19 11:21:56;;;;;;;8.65;4.30;;;;;;;20.47;82.44;98875.56;5068341;28;20077;-86
2022/08/19 11:24:24;;;;;;;5.85;3.40;;;;;;;19.87;82.67;98872.44;5059389;28;20115;-84
2022/08/19 11:26:51;;;;;;;14.00;4.20;;;;;;;20.08;83.76;98868.00;5049351;28;20028;-85
2022/08/19 11:29:20;;;;;;;10.65;3.97;;;;;;;19.94;85.20;98870.38;5048590;28;20514;-85
2022/08/19 11:31:49;;;;;;;10.38;4.13;;;;;;;20.26;84.98;98853.44;5062415;28;20024;-84
2022/08/19 11:34:21;;;;;;;10.80;4.10;;;;;;;20.33;85.60;98858.47;5045745;28;20386;-84
2022/08/19 11:36:48;;;;;;;10.45;4.00;;;;;;;20.25;84.40;98873.16;5047704;28;20131;-84
2022/08/19 11:39:17;;;;;;;13.93;4.00;;;;;;;20.20;85.07;98867.78;5061928;28;20089;-84
2022/08/19 11:41:43;;;;;;;15.10;4.25;;;;;;;20.11;83.20;98865.63;5059276;28;20541;-84
2022/08/19 11:44:09;;;;;;;9.68;4.00;;;;;;;20.14;84.33;98856.28;5048097;28;20058;-85